Wetterdaten: aktuell Mittwoch, 12.12.2018 05:00
Datum Zeit Temperatur Luftfeuchte Luftdruck Regen Wind Richtung Richtung Taupunkt Windchill
12.12.2018 05:00 -1,3 C 88 % 1020 hPa 0,0 mm 0,0 km/h (0 Bft) W-NW 295 -3,0 C -1,3 C
12.12.2018 04:55 -1,3 C 88 % 1020 hPa 0,0 mm 0,8 km/h (0 Bft) NW 310 -3,0 C -1,3 C
12.12.2018 04:50 -1,4 C 88 % 1020 hPa 0,0 mm 0,4 km/h (0 Bft) NW 315 -3,1 C -1,4 C
12.12.2018 04:45 -1,4 C 88 % 1020 hPa 0,0 mm 0,1 km/h (0 Bft) NW 315 -3,1 C -1,4 C
12.12.2018 04:40 -1,4 C 88 % 1020 hPa 0,0 mm 0,1 km/h (0 Bft) NW 315 -3,1 C -1,4 C
12.12.2018 04:35 -1,3 C 88 % 1020 hPa 0,0 mm 0,1 km/h (0 Bft) NW 305 -3,0 C -1,3 C
12.12.2018 04:30 -1,4 C 88 % 1020 hPa 0,0 mm 0,1 km/h (0 Bft) W-NW 300 -3,1 C -1,4 C
12.12.2018 04:25 -1,4 C 89 % 1021 hPa 0,0 mm 0,0 km/h (0 Bft) W-NW 300 -3,0 C -1,4 C
12.12.2018 04:20 -1,4 C 89 % 1021 hPa 0,0 mm 0,0 km/h (0 Bft) W-NW 300 -3,0 C -1,4 C
12.12.2018 04:15 -1,4 C 89 % 1021 hPa 0,0 mm 0,0 km/h (0 Bft) W-NW 300 -3,0 C -1,4 C
12.12.2018 04:10 -1,6 C 89 % 1021 hPa 0,0 mm 0,1 km/h (0 Bft) W-NW 300 -3,2 C -1,6 C
12.12.2018 04:05 -1,7 C 89 % 1021 hPa 0,0 mm 0,0 km/h (0 Bft) W-NW 300 -3,3 C -1,7 C
12.12.2018 04:00 -1,7 C 89 % 1021 hPa 0,0 mm 2,5 km/h (1 Bft) W-NW 300 -3,3 C -1,7 C
12.12.2018 03:55 -1,8 C 88 % 1021 hPa 0,0 mm 0,0 km/h (0 Bft) W-NW 300 -3,5 C -1,8 C
12.12.2018 03:50 -1,9 C 88 % 1021 hPa 0,0 mm 0,1 km/h (0 Bft) W-NW 300 -3,6 C -1,9 C
12.12.2018 03:45 -1,9 C 88 % 1021 hPa 0,0 mm 0,0 km/h (0 Bft) W-NW 300 -3,6 C -1,9 C
12.12.2018 03:40 -2,0 C 88 % 1021 hPa 0,0 mm 0,0 km/h (0 Bft) W-NW 300 -3,7 C -2,0 C
12.12.2018 03:35 -2,1 C 87 % 1021 hPa 0,0 mm 0,0 km/h (0 Bft) W-NW 300 -4,0 C -2,1 C
12.12.2018 03:30 -2,1 C 87 % 1021 hPa 0,0 mm 0,0 km/h (0 Bft) W-NW 300 -4,0 C -2,1 C
12.12.2018 03:25 -2,2 C 87 % 1021 hPa 0,0 mm 0,1 km/h (0 Bft) W-NW 300 -4,1 C -2,2 C
12.12.2018 03:20 -2,1 C 86 % 1021 hPa 0,0 mm 0,0 km/h (0 Bft) W-NW 300 -4,1 C -2,1 C
12.12.2018 03:15 -2,1 C 86 % 1021 hPa 0,0 mm 0,0 km/h (0 Bft) W-NW 300 -4,1 C -2,1 C
12.12.2018 03:10 -2,1 C 86 % 1021 hPa 0,0 mm 0,0 km/h (0 Bft) W-NW 300 -4,1 C -2,1 C
12.12.2018 03:05 -2,2 C 84 % 1021 hPa 0,0 mm 0,2 km/h (0 Bft) W-NW 300 -4,5 C -2,2 C
12.12.2018 03:00 -2,1 C 84 % 1021 hPa 0,0 mm 0,0 km/h (0 Bft) W-NW 300 -4,4 C -2,1 C
12.12.2018 02:55 -2,2 C 84 % 1021 hPa 0,0 mm 0,0 km/h (0 Bft) W-NW 300 -4,5 C -2,2 C
12.12.2018 02:50 -2,2 C 83 % 1021 hPa 0,0 mm 0,0 km/h (0 Bft) W-NW 300 -4,7 C -2,2 C
12.12.2018 02:45 -2,1 C 82 % 1021 hPa 0,0 mm 0,0 km/h (0 Bft) W-NW 300 -4,7 C -2,1 C
12.12.2018 02:40 -2,0 C 82 % 1021 hPa 0,0 mm 0,0 km/h (0 Bft) W-NW 300 -4,7 C -2,0 C
12.12.2018 02:35 -2,0 C 81 % 1021 hPa 0,0 mm 0,0 km/h (0 Bft) W-NW 300 -4,8 C -2,0 C
12.12.2018 02:30 -2,0 C 81 % 1021 hPa 0,0 mm 0,0 km/h (0 Bft) W-NW 300 -4,8 C -2,0 C
12.12.2018 02:25 -1,9 C 80 % 1021 hPa 0,0 mm 0,0 km/h (0 Bft) W-NW 300 -4,9 C -1,9 C
12.12.2018 02:20 -1,9 C 80 % 1021 hPa 0,0 mm 0,0 km/h (0 Bft) W-NW 300 -4,9 C -1,9 C
12.12.2018 02:15 -1,7 C 79 % 1021 hPa 0,0 mm 0,0 km/h (0 Bft) W-NW 300 -4,8 C -1,7 C
12.12.2018 02:10 -1,6 C 79 % 1021 hPa 0,0 mm 0,0 km/h (0 Bft) W-NW 300 -4,8 C -1,6 C
12.12.2018 02:05 -1,6 C 78 % 1021 hPa 0,0 mm 0,0 km/h (0 Bft) W-NW 300 -4,9 C -1,6 C
12.12.2018 02:00 -1,4 C 78 % 1021 hPa 0,0 mm 0,0 km/h (0 Bft) W-NW 300 -4,7 C -1,4 C
12.12.2018 01:55 -1,2 C 77 % 1021 hPa 0,0 mm 0,0 km/h (0 Bft) W-NW 300 -4,7 C -1,2 C
12.12.2018 01:50 -1,2 C 77 % 1021 hPa 0,0 mm 0,0 km/h (0 Bft) W-NW 300 -4,7 C -1,2 C
12.12.2018 01:45 -1,1 C 76 % 1021 hPa 0,0 mm 0,0 km/h (0 Bft) W-NW 300 -4,8 C -1,1 C
12.12.2018 01:40 -0,9 C 76 % 1021 hPa 0,0 mm 0,0 km/h (0 Bft) W-NW 300 -4,6 C -0,9 C
12.12.2018 01:35 -0,8 C 74 % 1021 hPa 0,0 mm 0,0 km/h (0 Bft) W-NW 300 -4,8 C -0,8 C
12.12.2018 01:30 -0,7 C 74 % 1021 hPa 0,0 mm 0,0 km/h (0 Bft) W-NW 300 -4,7 C -0,7 C
12.12.2018 01:25 -0,5 C 74 % 1021 hPa 0,0 mm 0,0 km/h (0 Bft) W-NW 300 -4,5 C -0,5 C
12.12.2018 01:20 -0,3 C 74 % 1021 hPa 0,0 mm 0,0 km/h (0 Bft) W-NW 300 -4,4 C -0,3 C
12.12.2018 01:15 -0,3 C 74 % 1021 hPa 0,0 mm 0,0 km/h (0 Bft) W-NW 300 -4,4 C -0,3 C
12.12.2018 01:10 -0,2 C 76 % 1021 hPa 0,0 mm 0,0 km/h (0 Bft) W-NW 300 -3,9 C -0,2 C
12.12.2018 01:05 -0,1 C 76 % 1021 hPa 0,0 mm 0,0 km/h (0 Bft) W-NW 300 -3,8 C -0,1 C
12.12.2018 01:00 0,0 C 74 % 1021 hPa 0,0 mm 0,0 km/h (0 Bft) W-NW 300 -4,1 C 0,0 C
12.12.2018 00:55 0,1 C 74 % 1021 hPa 0,0 mm 0,0 km/h (0 Bft) W-NW 300 -4,0 C 0,1 C
12.12.2018 00:50 0,1 C 74 % 1021 hPa 0,0 mm 0,0 km/h (0 Bft) W-NW 300 -4,0 C 0,1 C
12.12.2018 00:45 0,1 C 74 % 1021 hPa 0,0 mm 0,0 km/h (0 Bft) W-NW 300 -4,0 C 0,1 C
12.12.2018 00:40 0,2 C 74 % 1021 hPa 0,0 mm 0,0 km/h (0 Bft) W-NW 300 -3,9 C 0,2 C
12.12.2018 00:35 0,3 C 76 % 1021 hPa 0,0 mm 0,0 km/h (0 Bft) W-NW 300 -3,4 C 0,3 C
12.12.2018 00:30 0,3 C 77 % 1021 hPa 0,0 mm 0,0 km/h (0 Bft) W-NW 300 -3,2 C 0,3 C
12.12.2018 00:25 0,2 C 77 % 1021 hPa 0,0 mm 0,0 km/h (0 Bft) W-NW 300 -3,3 C 0,2 C
12.12.2018 00:20 0,1 C 77 % 1021 hPa 0,0 mm 0,0 km/h (0 Bft) W-NW 300 -3,4 C 0,1 C
12.12.2018 00:15 0,1 C 77 % 1021 hPa 0,0 mm 0,0 km/h (0 Bft) W-NW 300 -3,4 C 0,1 C
12.12.2018 00:10 0,1 C 78 % 1021 hPa 0,0 mm 0,0 km/h (0 Bft) W-NW 300 -3,3 C 0,1 C
12.12.2018 00:05 0,0 C 78 % 1021 hPa 0,0 mm 0,0 km/h (0 Bft) W-NW 300 -3,4 C 0,0 C
12.12.2018 00:01 0,0 C 78 % 1021 hPa 0,0 mm 0,0 km/h (0 Bft) W-NW 300 -3,4 C 0,0 C
11.12.2018 23:56 -0,1 C 79 % 1021 hPa 0,0 mm 0,0 km/h (0 Bft) W-NW 300 -3,3 C -0,1 C
11.12.2018 23:51 -0,2 C 79 % 1021 hPa 0,0 mm 0,0 km/h (0 Bft) W-NW 300 -3,4 C -0,2 C
11.12.2018 23:46 -0,3 C 79 % 1021 hPa 0,0 mm 0,0 km/h (0 Bft) W-NW 300 -3,5 C -0,3 C
11.12.2018 23:41 -0,4 C 79 % 1021 hPa 0,0 mm 0,1 km/h (0 Bft) W-NW 300 -3,6 C -0,4 C
11.12.2018 23:36 -0,3 C 79 % 1021 hPa 0,0 mm 0,7 km/h (0 Bft) NW 315 -3,5 C -0,3 C
11.12.2018 23:31 -0,3 C 80 % 1021 hPa 0,0 mm 0,1 km/h (0 Bft) N 350 -3,3 C -0,3 C
11.12.2018 23:26 -0,1 C 80 % 1021 hPa 0,0 mm 0,3 km/h (0 Bft) W-NW 285 -3,1 C -0,1 C
11.12.2018 23:21 0,0 C 80 % 1021 hPa 0,0 mm 0,0 km/h (0 Bft) W-NW 300 -3,0 C 0,0 C
11.12.2018 23:16 0,2 C 80 % 1021 hPa 0,0 mm 0,0 km/h (0 Bft) W-NW 300 -2,8 C 0,2 C
11.12.2018 23:11 0,3 C 81 % 1021 hPa 0,0 mm 0,0 km/h (0 Bft) W-NW 300 -2,6 C 0,3 C
11.12.2018 23:06 0,3 C 81 % 1021 hPa 0,0 mm 0,0 km/h (0 Bft) W-NW 300 -2,6 C 0,3 C
11.12.2018 23:01 0,3 C 82 % 1021 hPa 0,0 mm 0,0 km/h (0 Bft) W-NW 300 -2,4 C 0,3 C
11.12.2018 22:56 0,3 C 82 % 1021 hPa 0,0 mm 0,0 km/h (0 Bft) W-NW 300 -2,4 C 0,3 C
11.12.2018 22:51 0,3 C 82 % 1021 hPa 0,0 mm 0,0 km/h (0 Bft) NW 305 -2,4 C 0,3 C
11.12.2018 22:46 0,4 C 82 % 1021 hPa 0,0 mm 0,0 km/h (0 Bft) NW 305 -2,3 C 0,4 C
11.12.2018 22:41 0,3 C 82 % 1021 hPa 0,0 mm 0,0 km/h (0 Bft) NW 305 -2,4 C 0,3 C
11.12.2018 22:36 0,1 C 81 % 1021 hPa 0,0 mm 0,0 km/h (0 Bft) NW 305 -2,8 C 0,1 C
11.12.2018 22:31 0,1 C 81 % 1021 hPa 0,0 mm 0,0 km/h (0 Bft) NW 305 -2,8 C 0,1 C
11.12.2018 22:26 0,0 C 80 % 1021 hPa 0,0 mm 0,0 km/h (0 Bft) NW 305 -3,0 C 0,0 C
11.12.2018 22:21 0,0 C 79 % 1021 hPa 0,0 mm 0,3 km/h (0 Bft) NW 305 -3,2 C 0,0 C
11.12.2018 22:16 0,0 C 79 % 1021 hPa 0,0 mm 0,1 km/h (0 Bft) NW 310 -3,2 C 0,0 C
11.12.2018 22:11 0,2 C 77 % 1021 hPa 0,0 mm 0,0 km/h (0 Bft) NW 310 -3,3 C 0,2 C
11.12.2018 22:06 0,5 C 76 % 1021 hPa 0,0 mm 0,0 km/h (0 Bft) NW 310 -3,2 C 0,5 C
11.12.2018 22:01 0,6 C 74 % 1021 hPa 0,0 mm 0,0 km/h (0 Bft) NW 310 -3,5 C 0,6 C
11.12.2018 21:56 0,7 C 73 % 1021 hPa 0,0 mm 0,3 km/h (0 Bft) NW 310 -3,6 C 0,7 C
11.12.2018 21:51 0,7 C 71 % 1021 hPa 0,0 mm 0,0 km/h (0 Bft) NW22.5 325 -3,9 C 0,7 C
11.12.2018 21:46 1,0 C 68 % 1021 hPa 0,0 mm 4,5 km/h (1 Bft) N-NW 335 -4,2 C 1,0 C
11.12.2018 21:41 1,2 C 67 % 1021 hPa 0,0 mm 3,6 km/h (1 Bft) N-NW 335 -4,2 C 1,2 C
11.12.2018 21:36 1,5 C 68 % 1021 hPa 0,0 mm 0,0 km/h (0 Bft) N-NW 335 -3,7 C 1,5 C
11.12.2018 21:31 1,5 C 68 % 1021 hPa 0,0 mm 0,0 km/h (0 Bft) N-NW 335 -3,7 C 1,5 C
11.12.2018 21:26 1,5 C 68 % 1021 hPa 0,0 mm 0,0 km/h (0 Bft) N-NW 335 -3,7 C 1,5 C
11.12.2018 21:21 1,5 C 68 % 1021 hPa 0,0 mm 0,0 km/h (0 Bft) N-NW 335 -3,7 C 1,5 C
11.12.2018 21:16 1,4 C 69 % 1021 hPa 0,0 mm 0,0 km/h (0 Bft) N-NW 335 -3,7 C 1,4 C
11.12.2018 21:11 1,3 C 69 % 1021 hPa 0,0 mm 0,0 km/h (0 Bft) N-NW 335 -3,7 C 1,3 C
11.12.2018 21:06 1,3 C 68 % 1021 hPa 0,0 mm 0,0 km/h (0 Bft) N-NW 340 -3,9 C 1,3 C
11.12.2018 21:00 1,3 C 68 % 1021 hPa 0,0 mm 0,0 km/h (0 Bft) N-NW 335 -3,9 C 1,3 C
11.12.2018 20:55 1,3 C 68 % 1021 hPa 0,0 mm 0,0 km/h (0 Bft) N-NW 335 -3,9 C 1,3 C
11.12.2018 20:50 1,3 C 68 % 1021 hPa 0,0 mm 0,0 km/h (0 Bft) N-NW 335 -3,9 C 1,3 C
11.12.2018 20:45 1,2 C 68 % 1021 hPa 0,0 mm 0,0 km/h (0 Bft) N-NW 335 -4,0 C 1,2 C
11.12.2018 20:40 1,1 C 68 % 1021 hPa 0,0 mm 0,0 km/h (0 Bft) N-NW 335 -4,1 C 1,1 C
11.12.2018 20:35 1,1 C 68 % 1021 hPa 0,0 mm 0,0 km/h (0 Bft) N-NW 335 -4,1 C 1,1 C
11.12.2018 20:30 1,1 C 68 % 1021 hPa 0,0 mm 0,0 km/h (0 Bft) N-NW 335 -4,1 C 1,1 C
11.12.2018 20:25 1,3 C 68 % 1021 hPa 0,0 mm 0,0 km/h (0 Bft) N-NW 335 -3,9 C 1,3 C
11.12.2018 20:20 1,4 C 68 % 1021 hPa 0,0 mm 0,0 km/h (0 Bft) N-NW 340 -3,8 C 1,4 C
11.12.2018 20:15 1,3 C 68 % 1021 hPa 0,0 mm 0,0 km/h (0 Bft) N-NW 340 -3,9 C 1,3 C
11.12.2018 20:10 1,3 C 69 % 1021 hPa 0,0 mm 0,0 km/h (0 Bft) N-NW 340 -3,7 C 1,3 C
11.12.2018 20:05 1,3 C 69 % 1021 hPa 0,0 mm 0,0 km/h (0 Bft) N-NW 340 -3,7 C 1,3 C
11.12.2018 20:00 1,5 C 69 % 1021 hPa 0,0 mm 0,0 km/h (0 Bft) N-NW 340 -3,6 C 1,5 C
11.12.2018 19:55 1,5 C 70 % 1021 hPa 0,0 mm 0,0 km/h (0 Bft) N-NW 340 -3,4 C 1,5 C
11.12.2018 19:50 1,4 C 70 % 1021 hPa 0,0 mm 0,0 km/h (0 Bft) N-NW 340 -3,5 C 1,4 C
11.12.2018 19:45 1,4 C 70 % 1021 hPa 0,0 mm 0,2 km/h (0 Bft) N-NW 340 -3,5 C 1,4 C
11.12.2018 19:40 1,3 C 71 % 1021 hPa 0,0 mm 0,0 km/h (0 Bft) N-NW 330 -3,4 C 1,3 C
11.12.2018 19:35 1,3 C 71 % 1021 hPa 0,0 mm 0,0 km/h (0 Bft) N-NW 330 -3,4 C 1,3 C
11.12.2018 19:30 1,2 C 71 % 1021 hPa 0,0 mm 0,0 km/h (0 Bft) N-NW 330 -3,5 C 1,2 C
11.12.2018 19:25 1,1 C 71 % 1021 hPa 0,0 mm 0,0 km/h (0 Bft) N-NW 330 -3,6 C 1,1 C
11.12.2018 19:20 0,9 C 72 % 1021 hPa 0,0 mm 0,0 km/h (0 Bft) N-NW 330 -3,6 C 0,9 C
11.12.2018 19:15 0,7 C 72 % 1021 hPa 0,0 mm 0,0 km/h (0 Bft) N-NW 330 -3,8 C 0,7 C
11.12.2018 19:10 0,6 C 72 % 1021 hPa 0,0 mm 0,3 km/h (0 Bft) N-NW 335 -3,9 C 0,6 C
11.12.2018 19:05 0,3 C 72 % 1021 hPa 0,0 mm 0,0 km/h (0 Bft) N-NW 335 -4,1 C 0,3 C
11.12.2018 19:00 0,3 C 71 % 1021 hPa 0,0 mm 0,6 km/h (0 Bft) NW22.5 305 -4,3 C 0,3 C
11.12.2018 18:55 0,2 C 71 % 1021 hPa 0,0 mm 1,2 km/h (1 Bft) W-NW45 285 -4,4 C 0,2 C
11.12.2018 18:50 0,2 C 71 % 1021 hPa 0,0 mm 1,1 km/h (1 Bft) W45 280 -4,4 C 0,2 C
11.12.2018 18:45 0,3 C 71 % 1021 hPa 0,0 mm 4,2 km/h (1 Bft) NW22.5 310 -4,3 C 0,3 C
11.12.2018 18:40 0,3 C 71 % 1021 hPa 0,0 mm 9,4 km/h (2 Bft) NW22.5 310 -4,3 C -2,6 C
11.12.2018 18:35 0,3 C 71 % 1021 hPa 0,0 mm 11,0 km/h (2 Bft) W-NW67.5 300 -4,3 C -3,9 C
11.12.2018 18:30 0,4 C 71 % 1021 hPa 0,0 mm 5,2 km/h (1 Bft) W-SW22.5 240 -4,2 C 0,4 C
11.12.2018 18:25 0,5 C 71 % 1021 hPa 0,0 mm 1,9 km/h (1 Bft) NW22.5 305 -4,1 C 0,5 C
11.12.2018 18:20 0,5 C 71 % 1021 hPa 0,0 mm 4,5 km/h (1 Bft) W-NW22.5 295 -4,1 C 0,5 C
11.12.2018 18:15 0,5 C 72 % 1021 hPa 0,0 mm 0,6 km/h (0 Bft) NW22.5 320 -3,9 C 0,5 C
11.12.2018 18:10 0,5 C 72 % 1021 hPa 0,0 mm 4,2 km/h (1 Bft) W-NW67.5 285 -3,9 C 0,5 C
11.12.2018 18:06 0,5 C 72 % 1021 hPa 0,0 mm 7,9 km/h (2 Bft) W-NW45 290 -3,9 C -1,0 C
11.12.2018 18:01 0,5 C 72 % 1021 hPa 0,0 mm 4,1 km/h (1 Bft) W67.5 275 -3,9 C 0,5 C
11.12.2018 17:56 0,5 C 72 % 1021 hPa 0,0 mm 4,7 km/h (1 Bft) SW67.5 230 -3,9 C 0,5 C
11.12.2018 17:51 0,5 C 73 % 1021 hPa 0,0 mm 5,3 km/h (1 Bft) SW22.5 235 -3,8 C 0,5 C
11.12.2018 17:46 0,6 C 73 % 1021 hPa 0,0 mm 6,7 km/h (2 Bft) W-NW45 285 -3,7 C 0,3 C
11.12.2018 17:41 0,6 C 73 % 1021 hPa 0,0 mm 2,5 km/h (1 Bft) W-NW45 285 -3,7 C 0,6 C
11.12.2018 17:36 0,7 C 73 % 1021 hPa 0,0 mm 5,6 km/h (1 Bft) W45 280 -3,6 C 0,7 C
11.12.2018 17:31 0,8 C 73 % 1021 hPa 0,0 mm 5,4 km/h (1 Bft) W45 265 -3,5 C 0,8 C
11.12.2018 17:26 0,8 C 73 % 1021 hPa 0,0 mm 5,5 km/h (1 Bft) W-NW45 295 -3,5 C 0,8 C
11.12.2018 17:21 0,8 C 73 % 1021 hPa 0,0 mm 8,5 km/h (2 Bft) W67.5 280 -3,5 C -1,3 C
11.12.2018 17:16 0,8 C 73 % 1021 hPa 0,0 mm 1,3 km/h (1 Bft) NW45 305 -3,5 C 0,8 C
11.12.2018 17:11 0,8 C 74 % 1021 hPa 0,0 mm 7,7 km/h (2 Bft) NW22.5 320 -3,3 C -0,5 C
11.12.2018 17:06 0,8 C 74 % 1020 hPa 0,0 mm 7,2 km/h (2 Bft) NW22.5 320 -3,3 C -0,0 C
11.12.2018 17:01 0,8 C 74 % 1020 hPa 0,0 mm 9,0 km/h (2 Bft) NW45 305 -3,3 C -1,7 C
11.12.2018 16:56 0,8 C 76 % 1021 hPa 0,0 mm 7,9 km/h (2 Bft) W-NW67.5 290 -2,9 C -0,7 C
11.12.2018 16:51 0,8 C 77 % 1021 hPa 0,0 mm 2,9 km/h (1 Bft) W-NW45 285 -2,8 C 0,8 C
11.12.2018 16:46 0,8 C 77 % 1021 hPa 0,0 mm 7,0 km/h (2 Bft) W67.5 275 -2,8 C 0,2 C
11.12.2018 16:41 0,9 C 78 % 1021 hPa 0,0 mm 6,4 km/h (2 Bft) W22.5 275 -2,5 C 0,9 C
11.12.2018 16:36 1,0 C 77 % 1021 hPa 0,0 mm 2,8 km/h (1 Bft) W45 270 -2,6 C 1,0 C
11.12.2018 16:31 1,0 C 77 % 1021 hPa 0,0 mm 4,6 km/h (1 Bft) W67.5 270 -2,6 C 1,0 C
11.12.2018 16:26 1,1 C 77 % 1021 hPa 0,0 mm 5,2 km/h (1 Bft) W67.5 280 -2,5 C 1,1 C
11.12.2018 16:21 1,1 C 77 % 1021 hPa 0,0 mm 5,8 km/h (2 Bft) W22.5 265 -2,5 C 1,1 C
11.12.2018 16:16 1,1 C 78 % 1021 hPa 0,0 mm 6,8 km/h (2 Bft) W22.5 270 -2,3 C 0,7 C
11.12.2018 16:11 1,2 C 78 % 1021 hPa 0,0 mm 5,4 km/h (1 Bft) W22.5 280 -2,2 C 1,2 C
11.12.2018 16:06 1,2 C 78 % 1021 hPa 0,0 mm 7,7 km/h (2 Bft) W22.5 280 -2,2 C -0,1 C
11.12.2018 16:01 1,2 C 78 % 1021 hPa 0,0 mm 5,9 km/h (2 Bft) W-SW45 255 -2,2 C 1,2 C
11.12.2018 15:56 1,3 C 78 % 1021 hPa 0,0 mm 5,7 km/h (1 Bft) W67.5 275 -2,1 C 1,3 C
11.12.2018 15:51 1,3 C 78 % 1021 hPa 0,0 mm 7,4 km/h (2 Bft) W45 275 -2,1 C 0,3 C
11.12.2018 15:46 1,3 C 78 % 1021 hPa 0,0 mm 5,3 km/h (1 Bft) W-SW45 250 -2,1 C 1,3 C
11.12.2018 15:41 1,3 C 78 % 1021 hPa 0,0 mm 5,1 km/h (1 Bft) W-NW45 290 -2,1 C 1,3 C
11.12.2018 15:36 1,3 C 78 % 1021 hPa 0,0 mm 5,1 km/h (1 Bft) W-NW45 290 -2,1 C 1,3 C
11.12.2018 15:31 1,3 C 78 % 1021 hPa 0,0 mm 6,6 km/h (2 Bft) W67.5 260 -2,1 C 1,1 C
11.12.2018 15:26 1,3 C 78 % 1021 hPa 0,0 mm 8,9 km/h (2 Bft) W67.5 270 -2,1 C -1,1 C
11.12.2018 15:21 1,4 C 78 % 1021 hPa 0,0 mm 13,5 km/h (3 Bft) NW45 310 -2,0 C -4,4 C
11.12.2018 15:16 1,4 C 78 % 1021 hPa 0,0 mm 6,3 km/h (2 Bft) W45 270 -2,0 C 1,4 C
11.12.2018 15:11 1,4 C 78 % 1021 hPa 0,0 mm 6,2 km/h (2 Bft) W-SW22.5 255 -2,0 C 1,4 C
11.12.2018 15:06 1,4 C 78 % 1021 hPa 0,0 mm 12,8 km/h (3 Bft) W45 265 -2,0 C -3,9 C
11.12.2018 15:01 1,4 C 77 % 1021 hPa 0,0 mm 9,2 km/h (2 Bft) W22.5 275 -2,2 C -1,2 C
11.12.2018 14:56 1,4 C 77 % 1021 hPa 0,0 mm 7,5 km/h (2 Bft) W45 260 -2,2 C 0,3 C
11.12.2018 14:51 1,5 C 76 % 1021 hPa 0,0 mm 6,0 km/h (2 Bft) W-SW45 255 -2,3 C 1,5 C
11.12.2018 14:46 1,5 C 74 % 1021 hPa 0,0 mm 4,6 km/h (1 Bft) SW45 225 -2,6 C 1,5 C
11.12.2018 14:41 1,6 C 73 % 1021 hPa 0,0 mm 7,8 km/h (2 Bft) W-SW67.5 250 -2,7 C 0,2 C
11.12.2018 14:36 1,7 C 73 % 1021 hPa 0,0 mm 7,0 km/h (2 Bft) W45 270 -2,6 C 1,1 C
11.12.2018 14:31 1,7 C 73 % 1021 hPa 0,0 mm 7,5 km/h (2 Bft) W67.5 260 -2,6 C 0,6 C
11.12.2018 14:26 1,8 C 72 % 1021 hPa 0,0 mm 9,2 km/h (2 Bft) W45 270 -2,7 C -0,8 C
11.12.2018 14:21 1,8 C 73 % 1021 hPa 0,0 mm 8,9 km/h (2 Bft) W67.5 270 -2,5 C -0,6 C
11.12.2018 14:16 1,9 C 72 % 1021 hPa 0,0 mm 10,2 km/h (2 Bft) W-SW67.5 250 -2,6 C -1,5 C
11.12.2018 14:11 1,9 C 72 % 1021 hPa 0,0 mm 5,4 km/h (1 Bft) W-SW67.5 250 -2,6 C 1,9 C
11.12.2018 14:06 2,0 C 72 % 1021 hPa 0,0 mm 4,8 km/h (1 Bft) W-SW67.5 245 -2,5 C 2,0 C
11.12.2018 14:01 1,9 C 72 % 1021 hPa 0,0 mm 8,9 km/h (2 Bft) W-NW45 295 -2,6 C -0,5 C
11.12.2018 13:56 1,9 C 72 % 1021 hPa 0,0 mm 8,5 km/h (2 Bft) NW45 320 -2,6 C -0,1 C
11.12.2018 13:51 1,9 C 73 % 1021 hPa 0,0 mm 11,3 km/h (2 Bft) W67.5 270 -2,4 C -2,3 C
11.12.2018 13:46 1,9 C 73 % 1021 hPa 0,0 mm 6,7 km/h (2 Bft) SW67.5 235 -2,4 C 1,6 C
11.12.2018 13:41 1,8 C 73 % 1021 hPa 0,0 mm 7,5 km/h (2 Bft) W-SW67.5 245 -2,5 C 0,7 C
11.12.2018 13:36 1,7 C 73 % 1021 hPa 0,0 mm 10,5 km/h (2 Bft) W67.5 280 -2,6 C -2,0 C
11.12.2018 13:31 1,8 C 72 % 1021 hPa 0,0 mm 9,0 km/h (2 Bft) W22.5 280 -2,7 C -0,6 C
11.12.2018 13:26 1,8 C 72 % 1021 hPa 0,0 mm 6,1 km/h (2 Bft) W67.5 270 -2,7 C 1,8 C
11.12.2018 13:21 1,8 C 72 % 1021 hPa 0,0 mm 7,8 km/h (2 Bft) W67.5 270 -2,7 C 0,4 C
11.12.2018 13:16 1,7 C 71 % 1021 hPa 0,0 mm 11,0 km/h (2 Bft) W67.5 275 -3,0 C -2,3 C
11.12.2018 13:11 1,7 C 71 % 1021 hPa 0,0 mm 8,5 km/h (2 Bft) W67.5 270 -3,0 C -0,3 C
11.12.2018 13:06 1,9 C 71 % 1021 hPa 0,0 mm 15,6 km/h (3 Bft) W-NW67.5 285 -2,8 C -5,0 C
11.12.2018 13:01 1,9 C 71 % 1021 hPa 0,0 mm 10,5 km/h (2 Bft) W67.5 260 -2,8 C -1,7 C
11.12.2018 12:56 1,9 C 71 % 1021 hPa 0,0 mm 9,0 km/h (2 Bft) W-NW67.5 285 -2,8 C -0,5 C
11.12.2018 12:51 1,9 C 71 % 1021 hPa 0,0 mm 5,5 km/h (1 Bft) W-SW45 250 -2,8 C 1,9 C
11.12.2018 12:46 2,0 C 71 % 1021 hPa 0,0 mm 10,3 km/h (2 Bft) W67.5 275 -2,7 C -1,5 C
11.12.2018 12:41 2,0 C 71 % 1021 hPa 0,0 mm 1,7 km/h (1 Bft) W22.5 260 -2,7 C 2,0 C
11.12.2018 12:36 1,9 C 72 % 1021 hPa 0,0 mm 8,0 km/h (2 Bft) W22.5 275 -2,6 C 0,3 C
11.12.2018 12:31 1,9 C 72 % 1021 hPa 0,0 mm 0,7 km/h (0 Bft) N-NW 345 -2,6 C 1,9 C
11.12.2018 12:26 1,8 C 72 % 1021 hPa 0,0 mm 9,6 km/h (2 Bft) W67.5 270 -2,7 C -1,1 C
11.12.2018 12:21 1,8 C 72 % 1021 hPa 0,0 mm 7,0 km/h (2 Bft) W-SW67.5 240 -2,7 C 1,2 C
11.12.2018 12:16 1,9 C 73 % 1021 hPa 0,0 mm 12,5 km/h (3 Bft) S-SW67.5 210 -2,4 C -3,1 C
11.12.2018 12:11 2,0 C 72 % 1021 hPa 0,0 mm 8,1 km/h (2 Bft) W-NW22.5 285 -2,5 C 0,4 C
11.12.2018 12:06 2,1 C 73 % 1021 hPa 0,0 mm 8,9 km/h (2 Bft) W-SW67.5 240 -2,2 C -0,2 C
11.12.2018 12:01 2,1 C 76 % 1021 hPa 0,0 mm 9,0 km/h (2 Bft) W-SW67.5 255 -1,7 C -0,3 C
11.12.2018 11:56 2,0 C 76 % 1021 hPa 0,0 mm 7,5 km/h (2 Bft) W22.5 270 -1,8 C 0,9 C
11.12.2018 11:51 1,8 C 77 % 1021 hPa 0,0 mm 10,8 km/h (2 Bft) W-NW45 295 -1,8 C -2,1 C
11.12.2018 11:46 1,7 C 79 % 1021 hPa 0,0 mm 8,3 km/h (2 Bft) W22.5 275 -1,5 C -0,1 C
11.12.2018 11:41 1,6 C 80 % 1021 hPa 0,0 mm 7,8 km/h (2 Bft) W45 270 -1,5 C 0,2 C
11.12.2018 11:36 1,5 C 80 % 1021 hPa 0,0 mm 9,2 km/h (2 Bft) W-SW67.5 250 -1,6 C -1,1 C
11.12.2018 11:31 1,4 C 82 % 1021 hPa 0,0 mm 5,2 km/h (1 Bft) W-SW45 245 -1,3 C 1,4 C
11.12.2018 11:26 1,2 C 82 % 1022 hPa 0,0 mm 7,1 km/h (2 Bft) W-SW45 255 -1,5 C 0,5 C
11.12.2018 11:21 1,1 C 82 % 1022 hPa 0,0 mm 7,0 km/h (2 Bft) W67.5 275 -1,6 C 0,5 C
11.12.2018 11:16 1,0 C 83 % 1022 hPa 0,0 mm 6,2 km/h (2 Bft) W-NW45 290 -1,6 C 1,0 C
11.12.2018 11:11 1,0 C 83 % 1022 hPa 0,0 mm 6,7 km/h (2 Bft) W67.5 275 -1,6 C 0,7 C
11.12.2018 11:06 0,9 C 84 % 1022 hPa 0,0 mm 9,9 km/h (2 Bft) W-SW67.5 255 -1,5 C -2,4 C
11.12.2018 11:01 1,0 C 83 % 1022 hPa 0,0 mm 11,2 km/h (2 Bft) W67.5 280 -1,6 C -3,3 C
11.12.2018 10:56 0,9 C 84 % 1022 hPa 0,0 mm 10,0 km/h (2 Bft) W-SW67.5 240 -1,5 C -2,5 C
11.12.2018 10:51 0,7 C 84 % 1022 hPa 0,0 mm 14,0 km/h (3 Bft) W67.5 280 -1,7 C -5,5 C
11.12.2018 10:46 0,7 C 84 % 1022 hPa 0,0 mm 5,6 km/h (1 Bft) SW45 225 -1,7 C 0,7 C
11.12.2018 10:41 0,6 C 83 % 1022 hPa 0,0 mm 8,2 km/h (2 Bft) W-SW45 250 -1,9 C -1,2 C
11.12.2018 10:36 0,6 C 82 % 1022 hPa 0,0 mm 5,6 km/h (1 Bft) W45 260 -2,1 C 0,6 C
11.12.2018 10:31 0,6 C 82 % 1022 hPa 0,0 mm 6,6 km/h (2 Bft) W67.5 270 -2,1 C 0,4 C
11.12.2018 10:26 0,6 C 82 % 1022 hPa 0,0 mm 8,9 km/h (2 Bft) SW45 235 -2,1 C -1,8 C
11.12.2018 10:21 0,5 C 82 % 1022 hPa 0,0 mm 5,2 km/h (1 Bft) W22.5 275 -2,2 C 0,5 C
11.12.2018 10:16 0,5 C 82 % 1022 hPa 0,0 mm 9,0 km/h (2 Bft) W45 270 -2,2 C -2,0 C
11.12.2018 10:11 0,4 C 82 % 1022 hPa 0,0 mm 5,0 km/h (1 Bft) W-SW67.5 240 -2,3 C 0,4 C
11.12.2018 10:06 0,3 C 82 % 1022 hPa 0,0 mm 0,4 km/h (0 Bft) SW 230 -2,4 C 0,3 C
11.12.2018 10:01 0,3 C 82 % 1022 hPa 0,0 mm 7,3 km/h (2 Bft) W67.5 275 -2,4 C -0,6 C
11.12.2018 09:56 0,3 C 82 % 1021 hPa 0,0 mm 4,2 km/h (1 Bft) W67.5 260 -2,4 C 0,3 C
11.12.2018 09:51 0,3 C 82 % 1021 hPa 0,0 mm 5,2 km/h (1 Bft) W-NW67.5 285 -2,4 C 0,3 C
11.12.2018 09:46 0,2 C 83 % 1021 hPa 0,0 mm 4,6 km/h (1 Bft) NW22.5 310 -2,3 C 0,2 C
11.12.2018 09:41 0,2 C 83 % 1021 hPa 0,0 mm 8,1 km/h (2 Bft) NW67.5 305 -2,3 C -1,5 C
11.12.2018 09:36 0,2 C 83 % 1021 hPa 0,0 mm 8,9 km/h (2 Bft) NW22.5 325 -2,3 C -2,3 C
11.12.2018 09:31 0,1 C 83 % 1021 hPa 0,0 mm 1,5 km/h (1 Bft) NW 315 -2,4 C 0,1 C
11.12.2018 09:26 0,1 C 83 % 1021 hPa 0,0 mm 8,0 km/h (2 Bft) NW 320 -2,4 C -1,5 C
11.12.2018 09:21 0,1 C 83 % 1021 hPa 0,0 mm 5,7 km/h (1 Bft) NW 325 -2,4 C 0,1 C
11.12.2018 09:16 0,0 C 83 % 1021 hPa 0,0 mm 3,9 km/h (1 Bft) NW 325 -2,5 C 0,0 C
11.12.2018 09:11 0,0 C 83 % 1021 hPa 0,0 mm 5,3 km/h (1 Bft) NW22.5 325 -2,5 C 0,0 C
11.12.2018 09:06 0,0 C 83 % 1021 hPa 0,0 mm 6,7 km/h (2 Bft) NW 325 -2,5 C -0,3 C
11.12.2018 09:01 0,0 C 83 % 1021 hPa 0,0 mm 4,0 km/h (1 Bft) NW 325 -2,5 C 0,0 C
11.12.2018 08:56 -0,1 C 84 % 1021 hPa 0,0 mm 4,0 km/h (1 Bft) NW 320 -2,5 C -0,1 C
11.12.2018 08:51 -0,1 C 84 % 1021 hPa 0,0 mm 6,1 km/h (2 Bft) NW 325 -2,5 C -0,1 C
11.12.2018 08:46 -0,2 C 84 % 1021 hPa 0,0 mm 6,2 km/h (2 Bft) NW 320 -2,6 C -0,2 C
11.12.2018 08:41 -0,2 C 84 % 1022 hPa 0,0 mm 1,0 km/h (0 Bft) NW 325 -2,6 C -0,2 C
11.12.2018 08:36 -0,3 C 84 % 1021 hPa 0,0 mm 1,0 km/h (0 Bft) NW 325 -2,7 C -0,3 C
11.12.2018 08:31 -0,3 C 84 % 1021 hPa 0,0 mm 0,6 km/h (0 Bft) NW 325 -2,7 C -0,3 C
11.12.2018 08:26 -0,3 C 84 % 1021 hPa 0,0 mm 4,2 km/h (1 Bft) NW 325 -2,7 C -0,3 C
11.12.2018 08:21 -0,3 C 84 % 1021 hPa 0,0 mm 1,0 km/h (0 Bft) NW 325 -2,7 C -0,3 C
11.12.2018 08:16 -0,3 C 84 % 1021 hPa 0,0 mm 7,2 km/h (2 Bft) NW 325 -2,7 C -1,1 C
11.12.2018 08:11 -0,3 C 84 % 1021 hPa 0,0 mm 4,6 km/h (1 Bft) NW 325 -2,7 C -0,3 C
11.12.2018 08:06 -0,3 C 84 % 1021 hPa 0,0 mm 3,2 km/h (1 Bft) NW 325 -2,7 C -0,3 C
11.12.2018 08:01 -0,3 C 86 % 1021 hPa 0,0 mm 3,7 km/h (1 Bft) NW 325 -2,3 C -0,3 C
11.12.2018 07:56 -0,4 C 86 % 1021 hPa 0,0 mm 1,0 km/h (0 Bft) NW 325 -2,4 C -0,4 C
11.12.2018 07:51 -0,4 C 86 % 1021 hPa 0,0 mm 4,3 km/h (1 Bft) NW 325 -2,4 C -0,4 C
11.12.2018 07:46 -0,4 C 84 % 1021 hPa 0,0 mm 3,6 km/h (1 Bft) NW 325 -2,8 C -0,4 C
11.12.2018 07:41 -0,4 C 84 % 1021 hPa 0,0 mm 0,6 km/h (0 Bft) NW 325 -2,8 C -0,4 C
11.12.2018 07:36 -0,4 C 84 % 1021 hPa 0,0 mm 0,6 km/h (0 Bft) NW 325 -2,8 C -0,4 C
11.12.2018 07:31 -0,4 C 84 % 1021 hPa 0,0 mm 0,6 km/h (0 Bft) NW 325 -2,8 C -0,4 C
11.12.2018 07:26 -0,5 C 84 % 1021 hPa 0,0 mm 0,3 km/h (0 Bft) NW 325 -2,9 C -0,5 C
11.12.2018 07:21 -0,5 C 84 % 1021 hPa 0,0 mm 4,8 km/h (1 Bft) NW 325 -2,9 C -0,5 C
11.12.2018 07:16 -0,5 C 84 % 1021 hPa 0,0 mm 4,1 km/h (1 Bft) NW 325 -2,9 C -0,5 C
11.12.2018 07:11 -0,5 C 84 % 1021 hPa 0,0 mm 1,1 km/h (1 Bft) NW 325 -2,9 C -0,5 C
11.12.2018 07:06 -0,5 C 84 % 1021 hPa 0,0 mm 5,0 km/h (1 Bft) NW 325 -2,9 C -0,5 C
11.12.2018 07:01 -0,6 C 84 % 1021 hPa 0,0 mm 0,3 km/h (0 Bft) NW22.5 325 -3,0 C -0,6 C
11.12.2018 06:56 -0,6 C 84 % 1021 hPa 0,0 mm 4,2 km/h (1 Bft) NW 325 -3,0 C -0,6 C
11.12.2018 06:51 -0,6 C 84 % 1021 hPa 0,0 mm 3,9 km/h (1 Bft) NW 325 -3,0 C -0,6 C
11.12.2018 06:46 -0,6 C 84 % 1021 hPa 0,0 mm 5,3 km/h (1 Bft) NW 325 -3,0 C -0,6 C
11.12.2018 06:41 -0,6 C 84 % 1021 hPa 0,0 mm 0,0 km/h (0 Bft) NW 325 -3,0 C -0,6 C
11.12.2018 06:36 -0,7 C 84 % 1021 hPa 0,0 mm 1,6 km/h (1 Bft) NW 325 -3,1 C -0,7 C
11.12.2018 06:31 -0,6 C 83 % 1021 hPa 0,0 mm 5,9 km/h (2 Bft) NW 325 -3,1 C -0,6 C
11.12.2018 06:26 -0,6 C 83 % 1021 hPa 0,0 mm 5,7 km/h (1 Bft) NW 325 -3,1 C -0,6 C
11.12.2018 06:21 -0,6 C 83 % 1021 hPa 0,0 mm 10,0 km/h (2 Bft) NW 325 -3,1 C -4,1 C
11.12.2018 06:16 -0,5 C 83 % 1021 hPa 0,0 mm 4,3 km/h (1 Bft) NW 325 -3,0 C -0,5 C
11.12.2018 06:11 -0,5 C 84 % 1021 hPa 0,0 mm 4,2 km/h (1 Bft) NW 325 -2,9 C -0,5 C
11.12.2018 06:06 -0,6 C 84 % 1021 hPa 0,0 mm 4,2 km/h (1 Bft) NW 325 -3,0 C -0,6 C
11.12.2018 06:01 -0,6 C 83 % 1021 hPa 0,0 mm 1,0 km/h (0 Bft) NW 325 -3,1 C -0,6 C
_ Min-Zeit 02:50 21:41 17:01 - 06:41 - - 02:05 10:51
Minimum _ -2,2 C 67 % 1020 hPa - 0,0 km/h (0 Bft) - - -4,9 C -5,5 C
_ Max-Zeit 12:01 04:00 08:41 06:01 13:06 - - 11:31 12:41
Maximum _ 2,1 C 89 % 1022 hPa 0,0 mm 15,6 km/h
W-NW (3 Bft)
- - -1,3 C 2,0 C
Durchschnitt _ 0,3 C 78 % 1021 hPa #0,0 mm 3,3 km/h (1 Bft) W - -3,1 C -0,3 C